createdAt,value
2022-09-01T00:00:29.053Z,16.70
2022-09-01T00:01:03.186Z,16.81
2022-09-01T00:01:41.507Z,16.80
2022-09-01T00:02:15.725Z,16.86
2022-09-01T00:02:48.904Z,16.75
2022-09-01T00:03:24.891Z,16.84
2022-09-01T00:04:03.904Z,16.98
2022-09-01T00:04:40.745Z,16.73
2022-09-01T00:05:12.897Z,16.79
2022-09-01T00:05:46.272Z,16.85
2022-09-01T00:06:22.729Z,16.96
2022-09-01T00:06:55.222Z,16.99
2022-09-01T00:07:31.683Z,17.04
2022-09-01T00:08:05.252Z,17.04
2022-09-01T00:08:37.176Z,16.99
2022-09-01T00:09:12.672Z,16.99
2022-09-01T00:09:44.569Z,16.95
2022-09-01T00:10:16.930Z,16.94
2022-09-01T00:10:48.986Z,16.99
2022-09-01T00:11:23.254Z,17.00
2022-09-01T00:11:55.758Z,16.99
2022-09-01T00:12:28.974Z,16.98
2022-09-01T00:13:00.932Z,16.96
2022-09-01T00:13:33.983Z,16.95
2022-09-01T00:14:07.093Z,16.86
2022-09-01T00:14:56.027Z,16.80
2022-09-01T00:15:28.047Z,16.83
2022-09-01T00:16:04.288Z,16.88
2022-09-01T00:16:36.335Z,16.88
2022-09-01T00:17:10.774Z,16.92
2022-09-01T00:17:42.744Z,16.91
2022-09-01T00:18:15.775Z,16.89
2022-09-01T00:18:53.099Z,17.00
2022-09-01T00:19:25.134Z,17.06
2022-09-01T00:19:57.108Z,16.93
2022-09-01T00:20:29.242Z,16.80
2022-09-01T00:21:01.149Z,16.89
2022-09-01T00:21:37.186Z,16.92
2022-09-01T00:22:09.303Z,16.94
2022-09-01T00:22:41.180Z,16.88
2022-09-01T00:23:13.072Z,16.99
2022-09-01T00:23:45.167Z,16.97
2022-09-01T00:24:18.597Z,16.96
2022-09-01T00:24:50.575Z,16.91
2022-09-01T00:25:24.732Z,16.98
2022-09-01T00:25:56.544Z,17.05
2022-09-01T00:26:28.630Z,17.14
2022-09-01T00:27:00.490Z,16.95
2022-09-01T00:27:32.538Z,16.95
2022-09-01T00:28:05.073Z,16.90
2022-09-01T00:28:38.828Z,16.86
2022-09-01T00:29:10.651Z,16.91
2022-09-01T00:29:43.385Z,16.93
2022-09-01T00:30:16.260Z,16.95
2022-09-01T00:30:48.189Z,16.97
2022-09-01T00:31:21.431Z,17.01
2022-09-01T00:31:54.134Z,16.92
2022-09-01T00:32:26.670Z,16.82
2022-09-01T00:32:58.735Z,16.80
2022-09-01T00:33:30.744Z,16.66
2022-09-01T00:34:02.846Z,16.49
2022-09-01T00:34:34.779Z,16.63
2022-09-01T00:35:08.751Z,16.69
2022-09-01T00:35:40.588Z,16.65
2022-09-01T00:36:12.696Z,16.65
2022-09-01T00:36:44.686Z,16.68
2022-09-01T00:37:17.545Z,16.69
2022-09-01T00:37:49.412Z,16.76
2022-09-01T00:38:21.341Z,16.81
2022-09-01T00:38:53.403Z,16.95
2022-09-01T00:39:25.327Z,16.97
2022-09-01T00:39:57.532Z,16.99
2022-09-01T00:40:29.465Z,17.05
2022-09-01T00:41:01.757Z,17.03
2022-09-01T00:41:38.287Z,17.10
2022-09-01T00:42:11.365Z,16.97
2022-09-01T00:42:44.621Z,17.02
2022-09-01T00:43:46.988Z,17.05
2022-09-01T00:44:24.764Z,16.91
2022-09-01T00:44:56.654Z,16.90
2022-09-01T00:45:29.974Z,16.95
2022-09-01T00:46:03.248Z,17.04
2022-09-01T00:46:47.393Z,17.04
2022-09-01T00:47:21.765Z,16.99
2022-09-01T00:47:54.107Z,17.07
2022-09-01T00:48:26.005Z,17.07
2022-09-01T00:49:10.860Z,16.86
2022-09-01T00:49:49.537Z,16.81
2022-09-01T00:50:21.686Z,16.86
2022-09-01T00:50:54.667Z,16.73
2022-09-01T00:51:28.977Z,16.72
2022-09-01T00:52:15.608Z,16.62
2022-09-01T00:52:55.101Z,16.62
2022-09-01T00:53:27.407Z,16.58
2022-09-01T00:54:00.768Z,16.63
2022-09-01T00:54:36.115Z,16.64
2022-09-01T00:55:14.615Z,16.69
2022-09-01T00:55:46.451Z,16.81
2022-09-01T00:56:18.369Z,16.80
2022-09-01T00:56:57.687Z,16.74
2022-09-01T00:57:30.154Z,16.85
2022-09-01T00:58:05.057Z,16.89
2022-09-01T00:58:38.663Z,16.88
2022-09-01T00:59:12.579Z,16.89
2022-09-01T00:59:54.885Z,16.85
2022-09-01T01:00:29.740Z,16.71
2022-09-01T01:01:02.713Z,16.73
2022-09-01T01:01:36.793Z,16.73
2022-09-01T01:02:10.547Z,16.68
2022-09-01T01:02:45.047Z,16.71
2022-09-01T01:03:17.169Z,16.80
2022-09-01T01:03:49.180Z,16.86
2022-09-01T01:04:21.131Z,16.86
2022-09-01T01:04:56.044Z,16.92
2022-09-01T01:05:40.291Z,16.83
2022-09-01T01:06:13.764Z,16.88
2022-09-01T01:06:50.529Z,16.82
2022-09-01T01:07:23.318Z,16.91
2022-09-01T01:07:56.072Z,16.95
2022-09-01T01:08:34.154Z,17.03
2022-09-01T01:09:06.316Z,16.97
2022-09-01T01:09:42.041Z,17.06
2022-09-01T01:10:15.817Z,17.01
2022-09-01T01:10:47.707Z,17.07
2022-09-01T01:11:19.637Z,17.05
2022-09-01T01:11:53.340Z,16.98
2022-09-01T01:12:27.996Z,16.95
2022-09-01T01:13:04.653Z,16.95
2022-09-01T01:13:58.731Z,16.97
2022-09-01T01:14:31.947Z,16.99
2022-09-01T01:15:06.952Z,17.07
2022-09-01T01:15:39.113Z,16.96
2022-09-01T01:16:15.966Z,16.84
2022-09-01T01:16:52.080Z,16.89
2022-09-01T01:17:24.394Z,16.86
2022-09-01T01:17:56.446Z,16.96
2022-09-01T01:18:28.924Z,16.87
2022-09-01T01:19:00.924Z,16.82
2022-09-01T01:20:03.452Z,16.93
2022-09-01T01:20:54.250Z,16.81
2022-09-01T01:21:53.552Z,16.76
2022-09-01T01:22:52.553Z,16.74
2022-09-01T01:23:45.576Z,16.67
2022-09-01T01:24:32.948Z,16.79
2022-09-01T01:25:05.489Z,16.84
2022-09-01T01:25:44.367Z,16.84
2022-09-01T01:26:18.682Z,16.72
2022-09-01T01:26:50.934Z,16.78
2022-09-01T01:27:23.140Z,16.78
2022-09-01T01:28:32.136Z,16.92
2022-09-01T01:29:06.479Z,16.87
2022-09-01T01:29:39.811Z,16.70
2022-09-01T01:30:13.558Z,16.78
2022-09-01T01:30:54.001Z,16.88
2022-09-01T01:31:25.858Z,16.93
2022-09-01T01:31:58.186Z,16.91
2022-09-01T01:32:30.372Z,16.78
2022-09-01T01:33:04.663Z,16.76
2022-09-01T01:33:42.634Z,16.69
2022-09-01T01:34:15.029Z,16.58
2022-09-01T01:34:48.720Z,16.70
2022-09-01T01:35:21.836Z,16.72
2022-09-01T01:35:57.597Z,16.65
2022-09-01T01:36:36.351Z,16.62
2022-09-01T01:37:10.971Z,16.75
2022-09-01T01:37:46.617Z,16.80
2022-09-01T01:38:22.937Z,16.63
2022-09-01T01:39:02.713Z,16.67
2022-09-01T01:39:35.656Z,16.65
2022-09-01T01:40:15.644Z,16.67
2022-09-01T01:40:48.939Z,16.66
2022-09-01T01:41:21.960Z,16.59
2022-09-01T01:41:55.793Z,16.48
2022-09-01T01:42:28.967Z,16.48
2022-09-01T01:43:02.008Z,16.54
2022-09-01T01:43:34.338Z,16.63
2022-09-01T01:44:06.775Z,16.71
2022-09-01T01:44:40.876Z,16.80
2022-09-01T01:45:17.271Z,16.71
2022-09-01T01:45:52.539Z,16.64
2022-09-01T01:46:27.759Z,16.67
2022-09-01T01:46:59.886Z,16.73
2022-09-01T01:47:31.731Z,16.72
2022-09-01T01:48:06.076Z,16.69
2022-09-01T01:48:41.785Z,16.61
2022-09-01T01:49:20.012Z,16.60
2022-09-01T01:49:54.247Z,16.68
2022-09-01T01:50:33.493Z,16.80
2022-09-01T01:51:06.020Z,16.87
2022-09-01T01:51:38.111Z,16.84
2022-09-01T01:52:17.488Z,16.75
2022-09-01T01:52:58.151Z,16.81
2022-09-01T01:53:32.714Z,16.88
2022-09-01T01:54:07.234Z,16.79
2022-09-01T01:54:39.189Z,16.70
2022-09-01T01:55:12.784Z,16.70
2022-09-01T01:55:49.962Z,16.72
2022-09-01T01:56:26.242Z,16.71
2022-09-01T01:56:59.708Z,16.55
2022-09-01T01:57:33.017Z,16.60
2022-09-01T01:58:05.301Z,16.72
2022-09-01T01:58:37.267Z,16.70
2022-09-01T01:59:16.872Z,16.59
2022-09-01T01:59:49.127Z,16.52
2022-09-01T02:00:30.128Z,16.64
2022-09-01T02:01:03.694Z,16.66
2022-09-01T02:01:36.160Z,16.71
2022-09-01T02:02:09.851Z,16.68
2022-09-01T02:02:41.882Z,16.75
2022-09-01T02:03:19.846Z,16.78
2022-09-01T02:03:55.743Z,16.75
2022-09-01T02:04:33.985Z,16.70
2022-09-01T02:05:12.344Z,16.73
2022-09-01T02:05:45.992Z,16.71
2022-09-01T02:06:21.123Z,16.61
2022-09-01T02:06:53.173Z,16.63
2022-09-01T02:07:27.514Z,16.72
2022-09-01T02:08:07.270Z,16.63
2022-09-01T02:08:40.841Z,16.52
2022-09-01T02:09:15.228Z,16.47
2022-09-01T02:09:48.246Z,16.52
2022-09-01T02:10:20.692Z,16.56
2022-09-01T02:10:55.438Z,16.66
2022-09-01T02:11:27.848Z,16.75
2022-09-01T02:12:00.163Z,16.71
2022-09-01T02:12:32.749Z,16.63
2022-09-01T02:13:07.696Z,16.66
2022-09-01T02:13:40.133Z,16.61
2022-09-01T02:14:13.588Z,16.69
2022-09-01T02:14:46.407Z,16.72
2022-09-01T02:15:19.717Z,16.67
2022-09-01T02:15:54.321Z,16.77
2022-09-01T02:16:29.231Z,16.83
2022-09-01T02:17:03.727Z,16.78
2022-09-01T02:17:35.634Z,16.63
2022-09-01T02:18:07.468Z,16.65
2022-09-01T02:18:42.810Z,16.78
2022-09-01T02:19:15.116Z,16.89
2022-09-01T02:19:47.979Z,16.95
2022-09-01T02:20:20.062Z,16.96
2022-09-01T02:20:53.001Z,16.88
2022-09-01T02:21:27.106Z,16.93
2022-09-01T02:22:00.293Z,16.94
2022-09-01T02:22:33.102Z,16.98
2022-09-01T02:23:10.698Z,17.02
2022-09-01T02:23:43.525Z,17.01
2022-09-01T02:24:15.741Z,17.00
2022-09-01T02:24:49.241Z,17.02
2022-09-01T02:25:22.489Z,17.05
2022-09-01T02:26:17.569Z,16.89
2022-09-01T02:26:52.431Z,16.89
2022-09-01T02:27:25.788Z,16.96
2022-09-01T02:28:00.505Z,16.92
2022-09-01T02:28:36.822Z,16.88
2022-09-01T02:29:18.075Z,16.67
2022-09-01T02:29:51.196Z,16.72
2022-09-01T02:30:24.894Z,16.78
2022-09-01T02:31:02.243Z,16.79
2022-09-01T02:31:39.228Z,16.92
2022-09-01T02:32:11.760Z,16.78
2022-09-01T02:32:44.349Z,16.79
2022-09-01T02:33:19.400Z,16.75
2022-09-01T02:33:54.751Z,16.84
2022-09-01T02:34:29.068Z,16.88
2022-09-01T02:35:01.225Z,16.78
2022-09-01T02:35:34.310Z,16.85
2022-09-01T02:36:14.242Z,16.84
2022-09-01T02:36:51.506Z,16.76
2022-09-01T02:37:25.754Z,16.83
2022-09-01T02:38:00.361Z,16.93
2022-09-01T02:38:33.796Z,16.98
2022-09-01T02:39:06.145Z,16.90
2022-09-01T02:39:40.040Z,16.94
2022-09-01T02:40:12.219Z,16.87
2022-09-01T02:40:46.819Z,16.87
2022-09-01T02:41:23.702Z,16.80
2022-09-01T02:41:56.350Z,16.89
2022-09-01T02:42:32.177Z,16.88
2022-09-01T02:43:04.065Z,16.97
2022-09-01T02:43:36.018Z,17.04
2022-09-01T02:44:11.828Z,17.09
2022-09-01T02:44:44.109Z,17.04
2022-09-01T02:45:16.315Z,17.01
2022-09-01T02:45:57.698Z,16.76
2022-09-01T02:46:30.935Z,16.70
2022-09-01T02:47:05.563Z,16.81
2022-09-01T02:47:42.038Z,16.84
2022-09-01T02:48:14.258Z,16.87
2022-09-01T02:48:48.840Z,16.99
2022-09-01T02:49:28.605Z,16.99
2022-09-01T02:50:01.931Z,16.88
2022-09-01T02:50:34.521Z,16.82
2022-09-01T02:51:10.499Z,16.85
2022-09-01T02:51:44.776Z,16.84
2022-09-01T02:52:18.098Z,16.79
2022-09-01T02:52:52.370Z,16.88
2022-09-01T02:53:25.600Z,16.75
2022-09-01T02:53:57.977Z,16.76
2022-09-01T02:54:31.809Z,16.79
2022-09-01T02:55:03.810Z,16.82
2022-09-01T02:55:36.928Z,16.81
2022-09-01T02:56:15.517Z,16.86
2022-09-01T02:56:48.158Z,16.82
2022-09-01T02:57:22.958Z,16.93
2022-09-01T02:57:57.131Z,16.67
2022-09-01T02:58:40.849Z,16.79
2022-09-01T02:59:13.173Z,16.98
2022-09-01T02:59:47.549Z,16.98
2022-09-01T03:00:33.016Z,16.94
2022-09-01T03:01:05.304Z,16.79
2022-09-01T03:01:37.245Z,16.93
2022-09-01T03:02:10.034Z,16.97
2022-09-01T03:02:42.204Z,16.86
2022-09-01T03:03:17.630Z,16.78
2022-09-01T03:03:51.113Z,16.79
2022-09-01T03:04:24.259Z,16.89
2022-09-01T03:04:57.396Z,16.92
2022-09-01T03:05:34.477Z,16.95
2022-09-01T03:06:06.893Z,17.01
2022-09-01T03:06:39.552Z,17.04
2022-09-01T03:07:13.742Z,16.99
2022-09-01T03:07:45.591Z,16.97
2022-09-01T03:08:17.422Z,16.92
2022-09-01T03:08:51.761Z,17.00
2022-09-01T03:09:24.128Z,16.95
2022-09-01T03:09:55.992Z,16.97
2022-09-01T03:10:35.507Z,16.88
2022-09-01T03:11:13.079Z,16.82
2022-09-01T03:11:49.276Z,16.78
2022-09-01T03:12:21.389Z,16.82
2022-09-01T03:12:54.660Z,16.92
2022-09-01T03:13:27.394Z,16.97
2022-09-01T03:13:59.852Z,16.99
2022-09-01T03:14:33.158Z,16.95
2022-09-01T03:15:06.520Z,16.93
2022-09-01T03:15:41.444Z,16.86
2022-09-01T03:16:13.664Z,16.82
2022-09-01T03:16:45.626Z,16.84
2022-09-01T03:17:17.799Z,16.76
2022-09-01T03:17:49.728Z,16.71
2022-09-01T03:18:21.784Z,16.78
2022-09-01T03:18:53.774Z,16.85
2022-09-01T03:19:25.719Z,16.68
2022-09-01T03:19:57.984Z,16.73
2022-09-01T03:20:33.575Z,16.76
2022-09-01T03:21:06.441Z,16.76
2022-09-01T03:21:41.141Z,16.85
2022-09-01T03:22:13.507Z,16.88
2022-09-01T03:22:47.484Z,16.62
2022-09-01T03:23:19.704Z,16.54
2022-09-01T03:23:53.712Z,16.48
2022-09-01T03:24:25.791Z,16.64
2022-09-01T03:24:57.711Z,16.76
2022-09-01T03:25:30.116Z,16.80
2022-09-01T03:26:02.124Z,16.88
2022-09-01T03:26:36.204Z,16.93
2022-09-01T03:27:08.940Z,16.87
2022-09-01T03:27:41.440Z,16.82
2022-09-01T03:28:14.626Z,16.76
2022-09-01T03:28:47.248Z,16.73
2022-09-01T03:29:20.425Z,16.78
2022-09-01T03:29:52.478Z,16.78
2022-09-01T03:30:24.765Z,16.76
2022-09-01T03:30:58.331Z,16.68
2022-09-01T03:31:31.979Z,16.76
2022-09-01T03:32:06.661Z,16.84
2022-09-01T03:32:38.849Z,16.79
2022-09-01T03:33:11.090Z,16.63
2022-09-01T03:33:43.234Z,16.73
2022-09-01T03:34:23.661Z,16.72
2022-09-01T03:34:58.819Z,16.85
2022-09-01T03:35:32.004Z,16.83
2022-09-01T03:36:14.733Z,16.73
2022-09-01T03:36:50.840Z,16.75
2022-09-01T03:37:44.331Z,16.78
2022-09-01T03:38:24.186Z,16.79
2022-09-01T03:38:58.004Z,16.57
2022-09-01T03:39:30.512Z,16.62
2022-09-01T03:40:05.330Z,16.58
2022-09-01T03:40:40.234Z,16.57
2022-09-01T03:41:13.307Z,16.55
2022-09-01T03:41:45.748Z,16.52
2022-09-01T03:42:25.910Z,16.48
2022-09-01T03:42:58.389Z,16.55
2022-09-01T03:43:35.863Z,16.53
2022-09-01T03:44:12.069Z,16.53
2022-09-01T03:44:45.076Z,16.60
2022-09-01T03:45:20.514Z,16.59
2022-09-01T03:45:55.228Z,16.68
2022-09-01T03:46:36.415Z,16.69
2022-09-01T03:47:15.325Z,16.60
2022-09-01T03:47:47.731Z,16.54
2022-09-01T03:48:20.663Z,16.55
2022-09-01T03:48:56.044Z,16.59
2022-09-01T03:49:28.706Z,16.67
2022-09-01T03:50:02.534Z,16.53
2022-09-01T03:50:42.935Z,16.59
2022-09-01T03:51:15.211Z,16.59
2022-09-01T03:51:47.052Z,16.58
2022-09-01T03:52:19.096Z,16.61
2022-09-01T03:52:56.154Z,16.71
2022-09-01T03:53:30.148Z,16.65
2022-09-01T03:54:02.609Z,16.56
2022-09-01T03:54:35.119Z,16.65
2022-09-01T03:55:07.861Z,16.71
2022-09-01T03:55:45.141Z,16.63
2022-09-01T03:56:17.090Z,16.49
2022-09-01T03:56:49.150Z,16.37
2022-09-01T03:57:23.242Z,16.48
2022-09-01T03:57:57.699Z,16.67
2022-09-01T03:58:29.770Z,16.55
2022-09-01T03:59:01.789Z,16.48
2022-09-01T03:59:34.190Z,16.49
2022-09-01T04:00:13.378Z,16.60
2022-09-01T04:00:49.578Z,16.68
2022-09-01T04:01:22.604Z,16.64
2022-09-01T04:01:55.247Z,16.71
2022-09-01T04:02:29.809Z,16.70
2022-09-01T04:03:04.672Z,16.78
2022-09-01T04:03:39.728Z,16.83
2022-09-01T04:04:14.039Z,16.92
2022-09-01T04:04:46.513Z,16.91
2022-09-01T04:05:22.989Z,16.84
2022-09-01T04:05:55.139Z,16.80
2022-09-01T04:06:27.076Z,16.85
2022-09-01T04:07:00.281Z,16.88
2022-09-01T04:07:33.482Z,16.75
2022-09-01T04:08:10.078Z,16.74
2022-09-01T04:08:43.247Z,16.77
2022-09-01T04:09:15.417Z,16.86
2022-09-01T04:09:50.538Z,16.87
2022-09-01T04:10:23.139Z,16.71
2022-09-01T04:10:55.785Z,16.73
2022-09-01T04:11:30.803Z,16.81
2022-09-01T04:12:09.013Z,16.88
2022-09-01T04:12:45.421Z,16.86
2022-09-01T04:13:30.395Z,16.70
2022-09-01T04:14:02.410Z,16.68
2022-09-01T04:14:38.102Z,16.75
2022-09-01T04:15:10.869Z,16.80
2022-09-01T04:15:43.256Z,16.74
2022-09-01T04:16:42.747Z,16.73
2022-09-01T04:17:33.536Z,16.78
2022-09-01T04:18:10.113Z,16.80
2022-09-01T04:18:42.305Z,16.81
2022-09-01T04:19:20.449Z,16.91
2022-09-01T04:19:53.069Z,16.75
2022-09-01T04:20:25.095Z,16.71
2022-09-01T04:20:59.480Z,16.75
2022-09-01T04:21:32.009Z,16.80
2022-09-01T04:22:05.369Z,16.82
2022-09-01T04:22:47.534Z,16.78
2022-09-01T04:23:26.627Z,16.83
2022-09-01T04:24:03.506Z,16.84
2022-09-01T04:24:35.631Z,16.79
2022-09-01T04:25:09.050Z,16.88
2022-09-01T04:25:41.587Z,16.91
2022-09-01T04:26:20.368Z,16.81
2022-09-01T04:26:53.090Z,16.82
2022-09-01T04:27:27.032Z,16.73
2022-09-01T04:27:59.130Z,16.78
2022-09-01T04:28:37.200Z,16.85
2022-09-01T04:29:11.659Z,16.84
2022-09-01T04:29:46.137Z,16.78
2022-09-01T04:30:18.000Z,16.75
2022-09-01T04:30:56.296Z,16.80
2022-09-01T04:31:31.644Z,16.80
2022-09-01T04:32:12.970Z,16.68
2022-09-01T04:32:47.867Z,16.66
2022-09-01T04:33:19.839Z,16.65
2022-09-01T04:33:52.927Z,16.64
2022-09-01T04:34:27.432Z,16.78
2022-09-01T04:35:00.202Z,16.85
2022-09-01T04:35:33.021Z,16.69
2022-09-01T04:36:23.700Z,16.62
2022-09-01T04:36:56.847Z,16.62
2022-09-01T04:37:29.072Z,16.53
2022-09-01T04:38:05.933Z,16.56
2022-09-01T04:38:38.570Z,16.61
2022-09-01T04:39:13.250Z,16.68
2022-09-01T04:39:57.277Z,16.69
2022-09-01T04:40:30.214Z,16.67
2022-09-01T04:41:06.861Z,16.69
2022-09-01T04:41:49.458Z,16.78
2022-09-01T04:42:24.084Z,16.68
2022-09-01T04:42:56.182Z,16.63
2022-09-01T04:43:28.145Z,16.72
2022-09-01T04:44:04.883Z,16.69
2022-09-01T04:44:40.238Z,16.69
2022-09-01T04:45:16.337Z,16.74
2022-09-01T04:45:53.778Z,16.69
2022-09-01T04:46:28.490Z,16.65
2022-09-01T04:47:00.674Z,16.65
2022-09-01T04:47:36.023Z,16.67
2022-09-01T04:48:10.958Z,16.45
2022-09-01T04:48:46.053Z,16.54
2022-09-01T04:49:22.249Z,16.54
2022-09-01T04:49:59.705Z,16.57
2022-09-01T04:50:34.962Z,16.58
2022-09-01T04:51:44.465Z,16.54
2022-09-01T04:52:16.493Z,16.53
2022-09-01T04:52:48.438Z,16.67
2022-09-01T04:53:33.209Z,16.62
2022-09-01T04:54:12.726Z,16.67
2022-09-01T04:54:47.016Z,16.57
2022-09-01T04:55:18.960Z,16.53
2022-09-01T04:55:54.928Z,16.48
2022-09-01T04:56:35.415Z,16.66
2022-09-01T04:57:17.003Z,16.66
2022-09-01T04:57:50.536Z,16.72
2022-09-01T04:58:22.829Z,16.70
2022-09-01T04:58:55.808Z,16.70
2022-09-01T04:59:29.664Z,16.75
2022-09-01T05:00:05.072Z,16.72
2022-09-01T05:00:40.473Z,16.75
2022-09-01T05:01:18.737Z,16.69
2022-09-01T05:01:51.110Z,16.68
2022-09-01T05:02:27.190Z,16.63
2022-09-01T05:03:05.269Z,16.80
2022-09-01T05:04:01.341Z,16.78
2022-09-01T05:04:46.311Z,16.72
2022-09-01T05:05:19.871Z,16.68
2022-09-01T05:05:54.072Z,16.66
2022-09-01T05:06:26.448Z,16.49
2022-09-01T05:07:05.625Z,16.58
2022-09-01T05:07:43.324Z,16.60
2022-09-01T05:08:23.322Z,16.60
2022-09-01T05:08:58.874Z,16.65
2022-09-01T05:09:49.206Z,16.68
2022-09-01T05:10:53.311Z,16.78
2022-09-01T05:11:37.715Z,16.71
2022-09-01T05:12:16.861Z,16.61
2022-09-01T05:12:52.362Z,16.52
2022-09-01T05:13:24.577Z,16.45
2022-09-01T05:13:57.792Z,16.44
2022-09-01T05:14:30.712Z,16.41
2022-09-01T05:15:06.332Z,16.41
2022-09-01T05:15:40.074Z,16.44
2022-09-01T05:16:14.967Z,16.38
2022-09-01T05:16:51.124Z,16.45
2022-09-01T05:17:26.032Z,16.44
2022-09-01T05:18:02.321Z,16.56
2022-09-01T05:18:34.377Z,16.66
2022-09-01T05:19:06.397Z,16.74
2022-09-01T05:19:43.176Z,16.84
2022-09-01T05:20:16.494Z,16.75
2022-09-01T05:20:52.170Z,16.77
2022-09-01T05:21:28.340Z,16.61
2022-09-01T05:22:00.430Z,16.58
2022-09-01T05:22:32.585Z,16.60
2022-09-01T05:23:12.648Z,16.70
2022-09-01T05:23:46.322Z,16.74
2022-09-01T05:24:21.617Z,16.60
2022-09-01T05:24:54.871Z,16.66
2022-09-01T05:25:27.426Z,16.69
2022-09-01T05:26:04.060Z,16.84
2022-09-01T05:26:40.847Z,16.95
2022-09-01T05:27:14.481Z,16.96
2022-09-01T05:27:52.633Z,16.89
2022-09-01T05:28:27.181Z,16.89
2022-09-01T05:29:02.842Z,16.87
2022-09-01T05:29:37.986Z,16.85
2022-09-01T05:30:11.857Z,16.85
2022-09-01T05:30:46.944Z,16.72
2022-09-01T05:31:19.866Z,16.75
2022-09-01T05:31:52.713Z,16.88
2022-09-01T05:32:26.134Z,16.95
2022-09-01T05:32:58.617Z,16.94
2022-09-01T05:33:30.640Z,16.98
2022-09-01T05:34:03.418Z,17.04
2022-09-01T05:34:38.849Z,17.03
2022-09-01T05:35:11.269Z,16.99
2022-09-01T05:35:55.447Z,16.93
2022-09-01T05:36:28.564Z,16.92
2022-09-01T05:37:01.845Z,16.98
2022-09-01T05:37:37.703Z,16.99
2022-09-01T05:38:13.942Z,16.98
2022-09-01T05:38:48.109Z,17.02
2022-09-01T05:39:20.871Z,17.14
2022-09-01T05:39:52.965Z,17.15
2022-09-01T05:40:24.749Z,17.19
2022-09-01T05:40:58.995Z,17.05
2022-09-01T05:41:32.832Z,17.11
2022-09-01T05:42:08.362Z,17.16
2022-09-01T05:42:44.288Z,17.04
2022-09-01T05:43:17.361Z,17.05
2022-09-01T05:43:55.148Z,17.16
2022-09-01T05:44:28.547Z,17.14
2022-09-01T05:45:02.118Z,17.23
2022-09-01T05:45:56.261Z,17.33
2022-09-01T05:46:28.606Z,17.37
2022-09-01T05:47:03.281Z,17.45
2022-09-01T05:47:37.421Z,17.47
2022-09-01T05:48:12.489Z,17.11
2022-09-01T05:48:49.520Z,17.13
2022-09-01T05:49:21.407Z,17.15
2022-09-01T05:49:55.316Z,17.34
2022-09-01T05:50:28.242Z,17.41
2022-09-01T05:51:00.418Z,17.45
2022-09-01T05:51:44.410Z,17.46
2022-09-01T05:52:24.979Z,17.60
2022-09-01T05:52:58.190Z,17.73
2022-09-01T05:53:31.082Z,17.67
2022-09-01T05:54:08.054Z,17.70
2022-09-01T05:54:41.453Z,17.68
2022-09-01T05:55:15.209Z,17.80
2022-09-01T05:55:49.096Z,17.67
2022-09-01T05:56:22.512Z,17.79
2022-09-01T05:57:12.753Z,17.98
2022-09-01T05:57:51.131Z,18.05
2022-09-01T05:58:26.279Z,17.98
2022-09-01T05:59:54.551Z,18.02
2022-09-01T06:00:34.716Z,17.72
2022-09-01T06:01:07.552Z,17.54
2022-09-01T06:01:41.128Z,17.55
2022-09-01T06:02:13.158Z,17.43
2022-09-01T06:02:45.190Z,17.37
2022-09-01T06:03:24.898Z,17.42
2022-09-01T06:03:57.899Z,17.46
2022-09-01T06:04:34.710Z,17.52
2022-09-01T06:05:10.906Z,17.35
2022-09-01T06:05:43.166Z,17.33
2022-09-01T06:06:16.649Z,17.41
2022-09-01T06:07:06.368Z,17.51
2022-09-01T06:07:42.846Z,17.49
2022-09-01T06:08:18.103Z,17.68
2022-09-01T06:08:51.550Z,17.71
2022-09-01T06:09:24.404Z,18.03
2022-09-01T06:10:00.046Z,18.15
2022-09-01T06:10:37.415Z,18.38
2022-09-01T06:11:17.776Z,18.24
2022-09-01T06:11:50.044Z,18.05
2022-09-01T06:12:23.751Z,18.16
2022-09-01T06:12:56.695Z,18.17
2022-09-01T06:13:30.200Z,18.35
2022-09-01T06:14:04.423Z,18.30
2022-09-01T06:14:36.585Z,18.36
2022-09-01T06:15:15.907Z,18.54
2022-09-01T06:15:53.606Z,18.64
2022-09-01T06:16:27.664Z,18.84
2022-09-01T06:17:00.703Z,18.85
2022-09-01T06:17:33.935Z,18.86
2022-09-01T06:18:12.584Z,18.50
2022-09-01T06:18:55.231Z,18.02
2022-09-01T06:19:28.584Z,18.11
2022-09-01T06:20:00.895Z,18.45
2022-09-01T06:20:34.176Z,18.58
2022-09-01T06:21:09.859Z,18.26
2022-09-01T06:21:42.367Z,18.27
2022-09-01T06:22:14.583Z,18.28
2022-09-01T06:22:47.645Z,18.23
2022-09-01T06:23:20.728Z,18.43
2022-09-01T06:23:55.716Z,18.51
2022-09-01T06:24:29.008Z,18.48
2022-09-01T06:25:02.825Z,18.50
2022-09-01T06:25:39.475Z,18.63
2022-09-01T06:26:27.681Z,18.95
2022-09-01T06:27:01.892Z,18.55
2022-09-01T06:27:38.682Z,18.51
2022-09-01T06:28:12.264Z,18.31
2022-09-01T06:28:45.256Z,18.28
2022-09-01T06:29:17.697Z,17.88
2022-09-01T06:29:54.919Z,17.81
2022-09-01T06:30:27.691Z,17.96
2022-09-01T06:31:07.962Z,18.11
2022-09-01T06:31:40.362Z,17.95
2022-09-01T06:32:13.451Z,18.01
2022-09-01T06:32:45.587Z,18.09
2022-09-01T06:33:19.467Z,17.97
2022-09-01T06:33:54.777Z,17.89
2022-09-01T06:34:27.569Z,18.16
2022-09-01T06:35:00.468Z,18.45
2022-09-01T06:35:34.670Z,18.96
2022-09-01T06:36:09.554Z,19.13
2022-09-01T06:36:44.686Z,19.40
2022-09-01T06:37:22.568Z,19.53
2022-09-01T06:37:58.523Z,19.67
2022-09-01T06:38:41.244Z,19.52
2022-09-01T06:39:19.900Z,19.16
2022-09-01T06:39:55.379Z,19.33
2022-09-01T06:40:28.697Z,19.35
2022-09-01T06:41:04.259Z,19.16
2022-09-01T06:41:38.845Z,19.12
2022-09-01T06:42:16.423Z,18.80
2022-09-01T06:43:08.074Z,19.01
2022-09-01T06:43:42.708Z,18.85
2022-09-01T06:44:14.890Z,19.03
2022-09-01T06:44:55.326Z,18.83
2022-09-01T06:45:27.286Z,18.74
2022-09-01T06:46:02.343Z,18.50
2022-09-01T06:46:35.092Z,18.47
2022-09-01T06:47:09.393Z,18.60
2022-09-01T06:47:45.037Z,18.82
2022-09-01T06:48:17.804Z,18.57
2022-09-01T06:48:50.565Z,18.75
2022-09-01T06:49:32.407Z,18.92
2022-09-01T06:50:08.578Z,19.29
2022-09-01T06:51:34.053Z,19.16
2022-09-01T06:52:06.383Z,19.34
2022-09-01T06:53:34.982Z,19.17
2022-09-01T06:54:14.673Z,19.11
2022-09-01T06:54:47.027Z,19.31
2022-09-01T06:55:19.592Z,19.29
2022-09-01T06:55:52.944Z,19.26
2022-09-01T06:56:32.337Z,19.29
2022-09-01T06:58:04.851Z,18.56
2022-09-01T06:58:39.310Z,18.10
2022-09-01T06:59:15.531Z,18.51
2022-09-01T07:00:43.530Z,18.67
2022-09-01T07:01:17.868Z,18.79
2022-09-01T07:01:52.640Z,18.95
2022-09-01T07:02:33.838Z,18.58
2022-09-01T07:03:25.700Z,18.62
2022-09-01T07:04:20.146Z,18.95
2022-09-01T07:04:59.510Z,18.95
2022-09-01T07:09:20.597Z,18.74
2022-09-01T07:10:23.074Z,18.79
2022-09-01T07:12:08.094Z,18.63
2022-09-01T07:13:09.200Z,18.63
2022-09-01T07:14:15.343Z,18.39
2022-09-01T07:16:30.175Z,18.60
2022-09-01T07:16:35.493Z,18.45
2022-09-01T07:17:28.659Z,18.37
2022-09-01T07:18:00.610Z,18.38
2022-09-01T07:18:33.903Z,18.15
2022-09-01T07:19:13.248Z,18.22
2022-09-01T07:19:52.186Z,18.15
2022-09-01T07:22:35.749Z,18.13
2022-09-01T07:23:05.769Z,18.25
2022-09-01T07:23:47.389Z,18.34
2022-09-01T07:24:31.929Z,18.45
2022-09-01T07:26:02.310Z,18.89
2022-09-01T07:27:36.077Z,18.63
2022-09-01T07:28:16.987Z,18.94
2022-09-01T07:29:01.065Z,19.15
2022-09-01T07:29:45.163Z,19.22
2022-09-01T07:30:19.087Z,19.45
2022-09-01T07:30:56.799Z,19.37
2022-09-01T07:31:50.599Z,19.19
2022-09-01T07:32:43.617Z,19.28
2022-09-01T07:35:14.499Z,18.96
2022-09-01T07:39:57.694Z,18.52
2022-09-01T07:42:30.043Z,18.92
2022-09-01T07:42:30.578Z,18.73
2022-09-01T07:43:08.311Z,19.48
2022-09-01T07:44:01.430Z,19.28
2022-09-01T07:44:52.953Z,19.18
2022-09-01T07:45:59.740Z,19.31
2022-09-01T07:46:40.340Z,19.57
2022-09-01T07:47:19.876Z,19.91
2022-09-01T07:47:53.781Z,19.75
2022-09-01T07:50:09.766Z,19.44
2022-09-01T07:50:37.514Z,19.25
2022-09-01T07:51:35.575Z,19.32
2022-09-01T07:51:59.806Z,19.17
2022-09-01T07:52:33.966Z,19.39
2022-09-01T07:53:06.484Z,19.22
2022-09-01T07:53:38.609Z,19.41
2022-09-01T07:54:15.123Z,19.31
2022-09-01T07:54:46.950Z,19.71
2022-09-01T07:55:19.092Z,20.04
2022-09-01T07:55:53.174Z,20.11
2022-09-01T07:56:25.657Z,20.26
2022-09-01T07:56:58.357Z,20.17
2022-09-01T07:57:30.734Z,20.36
2022-09-01T07:58:02.682Z,20.21
2022-09-01T07:58:38.287Z,19.99
2022-09-01T07:59:14.584Z,20.21
2022-09-01T07:59:55.904Z,20.27
2022-09-01T08:00:47.519Z,20.17
2022-09-01T08:01:23.994Z,19.89
2022-09-01T08:01:57.365Z,19.78
2022-09-01T08:02:29.565Z,19.77